PKWA TAF

86.4 °F / 30.2 °C
E at 8 MPH
70%
75.6°F / 24.2 °C
29.84" (1010 mb)
10 mile(s)
partly cloudy
2021.09.19 2300 UTC

PKWA TAF

2021/09/19 18:30
TAF PKWA 191725Z 1918/2018 09006KT P6SM VCSH SCT025 SCT100